Share

Statesboro, GA

Statesboro-Bulloch County (KTBR) Elev 187 ft | 32.48 °N, 81.74 °W | Change Station
Active Advisory: Flood Warning

Current weather conditions updated 16 minutes ago

Overcast
Overcast
57 °F
Feels Like 57 °F
N
13
Wind Variable Wind from NNE
Gusts 18 mph
Sunrise 6:52 AM
Sunset 8:00 PM
Moon Waning Gibbous

Today is forecast to be Much Warmer than yesterday.

Pressure 30.16 in
Visibility 10.0 miles
Clouds Overcast 1500 ft
Dew Point 52 °F
Humidity 83%
Rainfall 0.00 in
Snow Depth Not available.
UV 3 out of 16
Pollen 8.30 out of 12
Air Quality Not available.
Flu Activity Sporadic
METAR KTBR 201555Z AUTO 02011G16KT 10SM OVC015 14/11 A3016 RMK AO2 T01410113

More Conditions Fewer Conditions

Pressure 30.16 in
Visibility 10.0 miles
Clouds Overcast 1500 ft
Dew Point 52 °F
Humidity 83%
Rainfall 0.00 in
Snow Depth Not available.
UV 3 out of 16
Pollen 8.30 out of 12
Air Quality Not available.
Flu Activity Sporadic
METAR KTBR 201555Z AUTO 02011G16KT 10SM OVC015 14/11 A3016 RMK AO2 T01410113

More Conditions Fewer Conditions

10-Day Weather Forecast

Almanac

Astronomy

Apr. 20, 2014 Rise Set
Actual Time 6:52 AM EDT 8:00 PM EDT
Civil Twilight 6:26 AM EDT 8:25 PM EDT
Nautical Twilight 5:56 AM EDT 8:56 PM EDT
Astronomical Twilight 5:25 AM EDT 9:27 PM EDT
Moon 12:32 AM EDT 11:17 AM EDT
Length of Visible Light 13h 59m
Length of Day
13h 08m
Tomorrow will be 1m 50s longer.
Waning Gibbous, 69% of the Moon is Illuminated
Today
Waning Gibbous
Apr 22
Last Quarter
Apr 29
New
May 6
First Quarter
May 14
Full

Today's Extremes

State Highs State Lows

Community

  • Columbine
    Columbine
  • Easter Sunrise
    Easter Sunrise
  • Easter Eve - The Promise - Lake Palestine, TX
    Easter Eve - The Promise - Lake Palestine, TX
  • Happy Easter
    Happy Easter
  • EARLY FOGGY MORNING
    EARLY FOGGY MORNING

WunderPhotos

Upload Photos

1,703,262 photos uploaded!

WunderBlogs® & News

Nearby

Snow Depth

Station Depth Elevation
No new snow has been reported.

Coastal Water Temperatures

Place Temperature
No Stations Reporting

Earthquake Activity

City Distance Mag. Time & Date
No recent earthquake activity has been reported nearby.
Minimum magnitude displayed is 2.5.

Nearby Weather Stations

Station Location Temp. Dew Point Humidity Wind Precip. Elev Updated Type
RAWS METTER GA, Metter, GA 56 °F 52 °F 85% ENE  at  8 mph 0.00 in / hr 198 ft 11:03 AM EDT MADIS
Hope Street, Metter, GA 58.4 °F 53 °F 83% NNE  at  6.0 mph 0.00 in / hr 211 ft 12:11 PM EDT Rapid Fire
Georgia Gold, Pembroke, GA 58.0 °F 54 °F 87% NE  at  8.0 mph 0.00 in / hr 93 ft 12:10 PM EDT Normal
Stilson-Ellabell, Brooklet, GA 58.9 °F 50 °F 72% NE  at  9.0 mph 0.00 in / hr 95 ft 12:11 PM EDT Normal

Show More Stations Show Fewer Stations

What do you think?

We're not finished. Please let us know what you like, what you don't like, and what you are still missing.